sensor_id;sensor_type;location;lat;lon;timestamp;temperature;humidity
51567;DHT22;37657;53.182;5.638;2023-12-20T00:00:57;8.20;99.90
51567;DHT22;37657;53.182;5.638;2023-12-20T00:03:23;8.60;99.90
51567;DHT22;37657;53.182;5.638;2023-12-20T00:05:49;8.20;99.90
51567;DHT22;37657;53.182;5.638;2023-12-20T00:08:15;8.30;99.90
51567;DHT22;37657;53.182;5.638;2023-12-20T00:10:41;8.30;99.90
51567;DHT22;37657;53.182;5.638;2023-12-20T00:13:07;8.30;99.90
51567;DHT22;37657;53.182;5.638;2023-12-20T00:15:33;8.50;99.90
51567;DHT22;37657;53.182;5.638;2023-12-20T00:18:00;8.40;99.90
51567;DHT22;37657;53.182;5.638;2023-12-20T00:20:26;8.40;99.90
51567;DHT22;37657;53.182;5.638;2023-12-20T00:22:54;8.70;99.90
51567;DHT22;37657;53.182;5.638;2023-12-20T00:25:20;8.60;99.90
51567;DHT22;37657;53.182;5.638;2023-12-20T00:27:45;8.50;99.90
51567;DHT22;37657;53.182;5.638;2023-12-20T00:30:11;8.50;99.90
51567;DHT22;37657;53.182;5.638;2023-12-20T00:32:36;8.50;99.90
51567;DHT22;37657;53.182;5.638;2023-12-20T00:35:02;9.00;99.90
51567;DHT22;37657;53.182;5.638;2023-12-20T00:37:28;8.60;99.90
51567;DHT22;37657;53.182;5.638;2023-12-20T00:39:54;9.10;99.90
51567;DHT22;37657;53.182;5.638;2023-12-20T00:42:19;8.80;99.90
51567;DHT22;37657;53.182;5.638;2023-12-20T00:44:45;8.50;99.90
51567;DHT22;37657;53.182;5.638;2023-12-20T00:47:11;8.70;99.90
51567;DHT22;37657;53.182;5.638;2023-12-20T00:49:36;9.10;99.90
51567;DHT22;37657;53.182;5.638;2023-12-20T00:52:02;8.80;99.90
51567;DHT22;37657;53.182;5.638;2023-12-20T00:54:27;8.80;99.90
51567;DHT22;37657;53.182;5.638;2023-12-20T00:56:53;9.00;99.90
51567;DHT22;37657;53.182;5.638;2023-12-20T00:59:19;9.00;99.90
51567;DHT22;37657;53.182;5.638;2023-12-20T01:01:45;8.70;99.90
51567;DHT22;37657;53.182;5.638;2023-12-20T01:04:10;8.80;99.90
51567;DHT22;37657;53.182;5.638;2023-12-20T01:06:36;8.60;99.90
51567;DHT22;37657;53.182;5.638;2023-12-20T01:09:02;8.60;99.90
51567;DHT22;37657;53.182;5.638;2023-12-20T01:11:28;8.50;99.90
51567;DHT22;37657;53.182;5.638;2023-12-20T01:13:54;8.90;99.90
51567;DHT22;37657;53.182;5.638;2023-12-20T01:16:19;8.60;99.90
51567;DHT22;37657;53.182;5.638;2023-12-20T01:18:45;8.50;99.90
51567;DHT22;37657;53.182;5.638;2023-12-20T01:21:10;8.50;99.90
51567;DHT22;37657;53.182;5.638;2023-12-20T01:23:36;8.70;99.90
51567;DHT22;37657;53.182;5.638;2023-12-20T01:26:02;8.70;99.90
51567;DHT22;37657;53.182;5.638;2023-12-20T01:28:31;8.30;99.90
51567;DHT22;37657;53.182;5.638;2023-12-20T01:30:57;8.40;99.90
51567;DHT22;37657;53.182;5.638;2023-12-20T01:33:23;8.30;99.90
51567;DHT22;37657;53.182;5.638;2023-12-20T01:35:48;8.80;99.90
51567;DHT22;37657;53.182;5.638;2023-12-20T01:38:14;8.40;99.90
51567;DHT22;37657;53.182;5.638;2023-12-20T01:40:40;8.30;99.90
51567;DHT22;37657;53.182;5.638;2023-12-20T01:43:08;8.70;99.90
51567;DHT22;37657;53.182;5.638;2023-12-20T01:45:34;8.50;99.90
51567;DHT22;37657;53.182;5.638;2023-12-20T01:48:00;8.60;99.90
51567;DHT22;37657;53.182;5.638;2023-12-20T01:50:27;8.50;99.90
51567;DHT22;37657;53.182;5.638;2023-12-20T01:52:55;9.20;99.90
51567;DHT22;37657;53.182;5.638;2023-12-20T01:55:23;9.00;99.90
51567;DHT22;37657;53.182;5.638;2023-12-20T01:57:50;8.90;99.90
51567;DHT22;37657;53.182;5.638;2023-12-20T02:00:17;8.70;99.90
51567;DHT22;37657;53.182;5.638;2023-12-20T02:02:45;8.70;99.90
51567;DHT22;37657;53.182;5.638;2023-12-20T02:05:11;8.50;99.90
51567;DHT22;37657;53.182;5.638;2023-12-20T02:07:39;8.90;99.90
51567;DHT22;37657;53.182;5.638;2023-12-20T02:10:04;8.70;99.90
51567;DHT22;37657;53.182;5.638;2023-12-20T02:12:30;8.50;99.90
51567;DHT22;37657;53.182;5.638;2023-12-20T02:14:56;9.00;99.90
51567;DHT22;37657;53.182;5.638;2023-12-20T02:17:22;9.00;99.90
51567;DHT22;37657;53.182;5.638;2023-12-20T02:19:49;8.70;99.90
51567;DHT22;37657;53.182;5.638;2023-12-20T02:22:15;8.70;99.90
51567;DHT22;37657;53.182;5.638;2023-12-20T02:24:41;8.70;99.90
51567;DHT22;37657;53.182;5.638;2023-12-20T02:27:07;8.70;99.90
51567;DHT22;37657;53.182;5.638;2023-12-20T02:29:34;8.90;99.90
51567;DHT22;37657;53.182;5.638;2023-12-20T02:31:59;8.70;99.90
51567;DHT22;37657;53.182;5.638;2023-12-20T02:34:25;8.70;99.90
51567;DHT22;37657;53.182;5.638;2023-12-20T02:36:51;8.90;99.90
51567;DHT22;37657;53.182;5.638;2023-12-20T02:39:16;9.20;99.90
51567;DHT22;37657;53.182;5.638;2023-12-20T02:41:42;8.90;99.90
51567;DHT22;37657;53.182;5.638;2023-12-20T02:44:08;9.20;99.90
51567;DHT22;37657;53.182;5.638;2023-12-20T02:46:33;8.90;99.90
51567;DHT22;37657;53.182;5.638;2023-12-20T02:48:59;8.60;99.90
51567;DHT22;37657;53.182;5.638;2023-12-20T02:51:24;8.80;99.90
51567;DHT22;37657;53.182;5.638;2023-12-20T02:53:50;8.60;99.90
51567;DHT22;37657;53.182;5.638;2023-12-20T02:56:16;8.50;99.90
51567;DHT22;37657;53.182;5.638;2023-12-20T02:58:41;8.90;99.90
51567;DHT22;37657;53.182;5.638;2023-12-20T03:01:07;8.80;99.90
51567;DHT22;37657;53.182;5.638;2023-12-20T03:03:32;8.60;99.90
51567;DHT22;37657;53.182;5.638;2023-12-20T03:05:58;8.80;99.90
51567;DHT22;37657;53.182;5.638;2023-12-20T03:08:24;9.30;99.90
51567;DHT22;37657;53.182;5.638;2023-12-20T03:10:50;9.00;99.90
51567;DHT22;37657;53.182;5.638;2023-12-20T03:13:15;8.90;99.90
51567;DHT22;37657;53.182;5.638;2023-12-20T03:15:41;8.80;99.90
51567;DHT22;37657;53.182;5.638;2023-12-20T03:18:07;8.90;99.90
51567;DHT22;37657;53.182;5.638;2023-12-20T03:20:32;9.10;99.90
51567;DHT22;37657;53.182;5.638;2023-12-20T03:23:01;8.90;99.90
51567;DHT22;37657;53.182;5.638;2023-12-20T03:25:26;8.90;99.90
51567;DHT22;37657;53.182;5.638;2023-12-20T03:27:52;9.30;99.90
51567;DHT22;37657;53.182;5.638;2023-12-20T03:30:19;8.70;99.90
51567;DHT22;37657;53.182;5.638;2023-12-20T03:32:44;8.60;99.90
51567;DHT22;37657;53.182;5.638;2023-12-20T03:35:10;9.10;99.90
51567;DHT22;37657;53.182;5.638;2023-12-20T03:37:36;8.80;99.90
51567;DHT22;37657;53.182;5.638;2023-12-20T03:40:02;8.70;99.90
51567;DHT22;37657;53.182;5.638;2023-12-20T03:42:28;8.90;99.90
51567;DHT22;37657;53.182;5.638;2023-12-20T03:44:53;8.90;99.90
51567;DHT22;37657;53.182;5.638;2023-12-20T03:47:19;9.00;99.90
51567;DHT22;37657;53.182;5.638;2023-12-20T03:49:45;8.90;99.90
51567;DHT22;37657;53.182;5.638;2023-12-20T03:52:10;9.10;99.90
51567;DHT22;37657;53.182;5.638;2023-12-20T03:54:36;9.00;99.90
51567;DHT22;37657;53.182;5.638;2023-12-20T03:57:01;9.40;99.90
51567;DHT22;37657;53.182;5.638;2023-12-20T03:59:27;9.10;99.90
51567;DHT22;37657;53.182;5.638;2023-12-20T04:01:53;9.10;99.90
51567;DHT22;37657;53.182;5.638;2023-12-20T04:04:18;9.10;99.90
51567;DHT22;37657;53.182;5.638;2023-12-20T04:06:44;9.00;99.90
51567;DHT22;37657;53.182;5.638;2023-12-20T04:09:10;9.10;99.90
51567;DHT22;37657;53.182;5.638;2023-12-20T04:11:36;9.40;99.90
51567;DHT22;37657;53.182;5.638;2023-12-20T04:14:02;9.20;99.90
51567;DHT22;37657;53.182;5.638;2023-12-20T04:16:27;9.40;99.90
51567;DHT22;37657;53.182;5.638;2023-12-20T04:18:53;9.20;99.90
51567;DHT22;37657;53.182;5.638;2023-12-20T04:21:19;9.30;99.90
51567;DHT22;37657;53.182;5.638;2023-12-20T04:23:44;9.20;99.90
51567;DHT22;37657;53.182;5.638;2023-12-20T04:26:10;9.30;99.90
51567;DHT22;37657;53.182;5.638;2023-12-20T04:28:36;8.90;99.90
51567;DHT22;37657;53.182;5.638;2023-12-20T04:31:01;9.00;99.90
51567;DHT22;37657;53.182;5.638;2023-12-20T04:33:27;9.10;99.90
51567;DHT22;37657;53.182;5.638;2023-12-20T04:35:52;9.20;99.90
51567;DHT22;37657;53.182;5.638;2023-12-20T04:38:18;9.20;99.90
51567;DHT22;37657;53.182;5.638;2023-12-20T04:40:44;9.20;99.90
51567;DHT22;37657;53.182;5.638;2023-12-20T04:43:09;9.70;99.90
51567;DHT22;37657;53.182;5.638;2023-12-20T04:45:35;9.20;99.90
51567;DHT22;37657;53.182;5.638;2023-12-20T04:48:02;9.20;99.90
51567;DHT22;37657;53.182;5.638;2023-12-20T04:50:27;9.20;99.90
51567;DHT22;37657;53.182;5.638;2023-12-20T04:52:53;9.20;99.90
51567;DHT22;37657;53.182;5.638;2023-12-20T04:55:19;9.10;99.90
51567;DHT22;37657;53.182;5.638;2023-12-20T04:57:45;9.70;99.90
51567;DHT22;37657;53.182;5.638;2023-12-20T05:00:11;9.70;99.90
51567;DHT22;37657;53.182;5.638;2023-12-20T05:02:37;9.30;99.90
51567;DHT22;37657;53.182;5.638;2023-12-20T05:05:03;9.70;99.90
51567;DHT22;37657;53.182;5.638;2023-12-20T05:07:29;9.30;99.90
51567;DHT22;37657;53.182;5.638;2023-12-20T05:09:54;9.30;99.90
51567;DHT22;37657;53.182;5.638;2023-12-20T05:12:20;9.10;99.90
51567;DHT22;37657;53.182;5.638;2023-12-20T05:14:46;9.20;99.90
51567;DHT22;37657;53.182;5.638;2023-12-20T05:17:12;9.20;99.90
51567;DHT22;37657;53.182;5.638;2023-12-20T05:19:37;9.60;99.90
51567;DHT22;37657;53.182;5.638;2023-12-20T05:22:03;9.20;99.90
51567;DHT22;37657;53.182;5.638;2023-12-20T05:24:29;9.20;99.90
51567;DHT22;37657;53.182;5.638;2023-12-20T05:26:55;9.40;99.90
51567;DHT22;37657;53.182;5.638;2023-12-20T05:29:20;9.60;99.90
51567;DHT22;37657;53.182;5.638;2023-12-20T05:31:46;9.20;99.90
51567;DHT22;37657;53.182;5.638;2023-12-20T05:34:12;9.30;99.90
51567;DHT22;37657;53.182;5.638;2023-12-20T05:36:37;9.00;99.90
51567;DHT22;37657;53.182;5.638;2023-12-20T05:39:04;9.30;99.90
51567;DHT22;37657;53.182;5.638;2023-12-20T05:41:30;9.10;99.90
51567;DHT22;37657;53.182;5.638;2023-12-20T05:43:56;9.00;99.90
51567;DHT22;37657;53.182;5.638;2023-12-20T05:46:23;9.30;99.90
51567;DHT22;37657;53.182;5.638;2023-12-20T05:48:49;9.40;99.90
51567;DHT22;37657;53.182;5.638;2023-12-20T05:51:17;9.10;99.90
51567;DHT22;37657;53.182;5.638;2023-12-20T05:53:43;9.10;99.90
51567;DHT22;37657;53.182;5.638;2023-12-20T05:56:10;9.10;99.90
51567;DHT22;37657;53.182;5.638;2023-12-20T05:58:35;9.20;99.90
51567;DHT22;37657;53.182;5.638;2023-12-20T06:01:04;9.70;99.90
51567;DHT22;37657;53.182;5.638;2023-12-20T06:03:30;9.30;99.90
51567;DHT22;37657;53.182;5.638;2023-12-20T06:05:55;9.50;99.90
51567;DHT22;37657;53.182;5.638;2023-12-20T06:08:21;9.10;99.90
51567;DHT22;37657;53.182;5.638;2023-12-20T06:10:47;9.40;99.90
51567;DHT22;37657;53.182;5.638;2023-12-20T06:13:12;9.10;99.90
51567;DHT22;37657;53.182;5.638;2023-12-20T06:15:39;9.30;99.90
51567;DHT22;37657;53.182;5.638;2023-12-20T06:18:06;9.40;99.90
51567;DHT22;37657;53.182;5.638;2023-12-20T06:20:32;9.30;99.90
51567;DHT22;37657;53.182;5.638;2023-12-20T06:22:58;9.30;99.90
51567;DHT22;37657;53.182;5.638;2023-12-20T06:25:24;9.30;99.90
51567;DHT22;37657;53.182;5.638;2023-12-20T06:27:50;9.20;99.90
51567;DHT22;37657;53.182;5.638;2023-12-20T06:30:16;9.30;99.90
51567;DHT22;37657;53.182;5.638;2023-12-20T06:32:42;9.60;99.90
51567;DHT22;37657;53.182;5.638;2023-12-20T06:35:11;9.30;99.90
51567;DHT22;37657;53.182;5.638;2023-12-20T06:37:36;8.90;99.90
51567;DHT22;37657;53.182;5.638;2023-12-20T06:40:02;9.00;99.90
51567;DHT22;37657;53.182;5.638;2023-12-20T06:42:28;9.00;99.90
51567;DHT22;37657;53.182;5.638;2023-12-20T06:44:53;9.20;99.90
51567;DHT22;37657;53.182;5.638;2023-12-20T06:47:19;9.00;99.90
51567;DHT22;37657;53.182;5.638;2023-12-20T06:49:45;9.00;99.90
51567;DHT22;37657;53.182;5.638;2023-12-20T06:52:10;9.10;99.90
51567;DHT22;37657;53.182;5.638;2023-12-20T06:54:36;8.90;99.90
51567;DHT22;37657;53.182;5.638;2023-12-20T06:57:01;8.80;99.90
51567;DHT22;37657;53.182;5.638;2023-12-20T06:59:29;8.70;99.90
51567;DHT22;37657;53.182;5.638;2023-12-20T07:01:55;8.80;99.90
51567;DHT22;37657;53.182;5.638;2023-12-20T07:04:20;8.70;99.90
51567;DHT22;37657;53.182;5.638;2023-12-20T07:06:48;8.90;99.90
51567;DHT22;37657;53.182;5.638;2023-12-20T07:09:16;8.70;99.90
51567;DHT22;37657;53.182;5.638;2023-12-20T07:11:42;8.80;99.90
51567;DHT22;37657;53.182;5.638;2023-12-20T07:14:07;9.00;99.90
51567;DHT22;37657;53.182;5.638;2023-12-20T07:16:33;8.80;99.90
51567;DHT22;37657;53.182;5.638;2023-12-20T07:19:00;8.90;99.90
51567;DHT22;37657;53.182;5.638;2023-12-20T07:21:26;8.90;99.90
51567;DHT22;37657;53.182;5.638;2023-12-20T07:23:51;9.00;99.90
51567;DHT22;37657;53.182;5.638;2023-12-20T07:26:17;8.90;99.90
51567;DHT22;37657;53.182;5.638;2023-12-20T07:28:43;9.20;99.90
51567;DHT22;37657;53.182;5.638;2023-12-20T07:31:08;9.00;99.90
51567;DHT22;37657;53.182;5.638;2023-12-20T07:33:34;9.20;99.90
51567;DHT22;37657;53.182;5.638;2023-12-20T07:36:00;9.30;99.90
51567;DHT22;37657;53.182;5.638;2023-12-20T07:38:26;9.00;99.90
51567;DHT22;37657;53.182;5.638;2023-12-20T07:40:51;9.10;99.90
51567;DHT22;37657;53.182;5.638;2023-12-20T07:43:17;8.90;99.90
51567;DHT22;37657;53.182;5.638;2023-12-20T07:45:43;9.20;99.90
51567;DHT22;37657;53.182;5.638;2023-12-20T07:48:08;9.00;99.90
51567;DHT22;37657;53.182;5.638;2023-12-20T07:50:34;9.40;99.90
51567;DHT22;37657;53.182;5.638;2023-12-20T07:53:00;8.70;99.90
51567;DHT22;37657;53.182;5.638;2023-12-20T07:55:27;8.60;99.90
51567;DHT22;37657;53.182;5.638;2023-12-20T07:57:52;8.60;99.90
51567;DHT22;37657;53.182;5.638;2023-12-20T08:00:18;8.60;99.90
51567;DHT22;37657;53.182;5.638;2023-12-20T08:02:44;8.60;99.90
51567;DHT22;37657;53.182;5.638;2023-12-20T08:05:10;9.00;99.90
51567;DHT22;37657;53.182;5.638;2023-12-20T08:07:36;8.80;99.90
51567;DHT22;37657;53.182;5.638;2023-12-20T08:10:02;8.70;99.90
51567;DHT22;37657;53.182;5.638;2023-12-20T08:12:27;8.80;99.90
51567;DHT22;37657;53.182;5.638;2023-12-20T08:14:54;8.90;99.90
51567;DHT22;37657;53.182;5.638;2023-12-20T08:17:20;9.10;99.90
51567;DHT22;37657;53.182;5.638;2023-12-20T08:19:45;8.90;99.90
51567;DHT22;37657;53.182;5.638;2023-12-20T08:22:11;8.90;99.90
51567;DHT22;37657;53.182;5.638;2023-12-20T08:24:37;9.00;99.90
51567;DHT22;37657;53.182;5.638;2023-12-20T08:27:04;9.10;99.90
51567;DHT22;37657;53.182;5.638;2023-12-20T08:29:29;9.00;99.90
51567;DHT22;37657;53.182;5.638;2023-12-20T08:31:55;9.40;99.90
51567;DHT22;37657;53.182;5.638;2023-12-20T08:34:22;9.10;99.90
51567;DHT22;37657;53.182;5.638;2023-12-20T08:36:47;9.40;99.90
51567;DHT22;37657;53.182;5.638;2023-12-20T08:39:13;9.40;99.90
51567;DHT22;37657;53.182;5.638;2023-12-20T08:41:39;9.30;99.90
51567;DHT22;37657;53.182;5.638;2023-12-20T08:44:04;8.80;99.90
51567;DHT22;37657;53.182;5.638;2023-12-20T08:46:30;8.80;99.90
51567;DHT22;37657;53.182;5.638;2023-12-20T08:48:55;9.00;99.90
51567;DHT22;37657;53.182;5.638;2023-12-20T08:51:21;8.80;99.90
51567;DHT22;37657;53.182;5.638;2023-12-20T08:53:49;9.00;99.90
51567;DHT22;37657;53.182;5.638;2023-12-20T08:56:15;8.70;99.90
51567;DHT22;37657;53.182;5.638;2023-12-20T08:58:40;8.80;99.90
51567;DHT22;37657;53.182;5.638;2023-12-20T09:01:07;8.60;99.90
51567;DHT22;37657;53.182;5.638;2023-12-20T09:03:33;8.60;99.90
51567;DHT22;37657;53.182;5.638;2023-12-20T09:05:58;8.50;99.90
51567;DHT22;37657;53.182;5.638;2023-12-20T09:08:24;8.10;99.90
51567;DHT22;37657;53.182;5.638;2023-12-20T09:10:50;8.10;99.90
51567;DHT22;37657;53.182;5.638;2023-12-20T09:13:15;7.90;99.90
51567;DHT22;37657;53.182;5.638;2023-12-20T09:15:41;7.90;99.90
51567;DHT22;37657;53.182;5.638;2023-12-20T09:18:07;7.70;99.90
51567;DHT22;37657;53.182;5.638;2023-12-20T09:20:33;7.40;99.90
51567;DHT22;37657;53.182;5.638;2023-12-20T09:22:59;7.40;99.90
51567;DHT22;37657;53.182;5.638;2023-12-20T09:25:25;7.30;99.90
51567;DHT22;37657;53.182;5.638;2023-12-20T09:27:52;7.20;99.90
51567;DHT22;37657;53.182;5.638;2023-12-20T09:30:18;7.40;99.90
51567;DHT22;37657;53.182;5.638;2023-12-20T09:32:45;7.20;99.90
51567;DHT22;37657;53.182;5.638;2023-12-20T09:35:10;7.20;99.90
51567;DHT22;37657;53.182;5.638;2023-12-20T09:37:36;7.30;99.90
51567;DHT22;37657;53.182;5.638;2023-12-20T09:40:03;7.30;99.90
51567;DHT22;37657;53.182;5.638;2023-12-20T09:45:15;7.20;99.90
51567;DHT22;37657;53.182;5.638;2023-12-20T09:47:43;7.50;99.90
51567;DHT22;37657;53.182;5.638;2023-12-20T09:50:09;7.20;99.90
51567;DHT22;37657;53.182;5.638;2023-12-20T09:52:36;7.40;99.90
51567;DHT22;37657;53.182;5.638;2023-12-20T09:55:03;7.50;99.90
51567;DHT22;37657;53.182;5.638;2023-12-20T09:57:32;7.20;99.90
51567;DHT22;37657;53.182;5.638;2023-12-20T09:59:57;7.60;99.90
51567;DHT22;37657;53.182;5.638;2023-12-20T10:02:25;7.50;99.90
51567;DHT22;37657;53.182;5.638;2023-12-20T10:04:55;7.70;99.90
51567;DHT22;37657;53.182;5.638;2023-12-20T10:07:21;7.80;99.90
51567;DHT22;37657;53.182;5.638;2023-12-20T10:09:48;7.70;99.90
51567;DHT22;37657;53.182;5.638;2023-12-20T10:12:14;8.20;99.90
51567;DHT22;37657;53.182;5.638;2023-12-20T10:14:39;8.00;99.90
51567;DHT22;37657;53.182;5.638;2023-12-20T10:17:06;8.00;99.90
51567;DHT22;37657;53.182;5.638;2023-12-20T10:19:32;8.10;99.90
51567;DHT22;37657;53.182;5.638;2023-12-20T10:22:03;8.30;99.90
51567;DHT22;37657;53.182;5.638;2023-12-20T10:24:32;7.90;99.90
51567;DHT22;37657;53.182;5.638;2023-12-20T10:27:05;8.20;99.90
51567;DHT22;37657;53.182;5.638;2023-12-20T10:29:37;8.00;99.90
51567;DHT22;37657;53.182;5.638;2023-12-20T10:32:26;8.00;99.90
51567;DHT22;37657;53.182;5.638;2023-12-20T10:34:52;8.00;99.90
51567;DHT22;37657;53.182;5.638;2023-12-20T10:37:19;8.00;99.90
51567;DHT22;37657;53.182;5.638;2023-12-20T10:39:50;8.40;99.90
51567;DHT22;37657;53.182;5.638;2023-12-20T10:42:18;8.00;99.90
51567;DHT22;37657;53.182;5.638;2023-12-20T10:44:46;8.10;99.90
51567;DHT22;37657;53.182;5.638;2023-12-20T10:47:13;8.40;99.90
51567;DHT22;37657;53.182;5.638;2023-12-20T10:49:39;8.10;99.90
51567;DHT22;37657;53.182;5.638;2023-12-20T10:52:06;8.60;99.90
51567;DHT22;37657;53.182;5.638;2023-12-20T10:54:33;8.40;99.90
51567;DHT22;37657;53.182;5.638;2023-12-20T10:56:58;8.20;99.90
51567;DHT22;37657;53.182;5.638;2023-12-20T10:59:28;8.30;99.90
51567;DHT22;37657;53.182;5.638;2023-12-20T11:01:55;8.70;99.90
51567;DHT22;37657;53.182;5.638;2023-12-20T11:04:25;8.40;99.90
51567;DHT22;37657;53.182;5.638;2023-12-20T11:07:28;8.70;99.90
51567;DHT22;37657;53.182;5.638;2023-12-20T11:10:29;8.30;99.90
51567;DHT22;37657;53.182;5.638;2023-12-20T11:13:12;8.40;99.90
51567;DHT22;37657;53.182;5.638;2023-12-20T11:15:39;8.50;99.90
51567;DHT22;37657;53.182;5.638;2023-12-20T11:18:06;8.80;99.90
51567;DHT22;37657;53.182;5.638;2023-12-20T11:20:39;8.60;99.90
51567;DHT22;37657;53.182;5.638;2023-12-20T11:23:06;8.60;99.90
51567;DHT22;37657;53.182;5.638;2023-12-20T11:25:55;8.60;99.90
51567;DHT22;37657;53.182;5.638;2023-12-20T11:28:23;8.70;99.90
51567;DHT22;37657;53.182;5.638;2023-12-20T11:30:53;8.70;99.90
51567;DHT22;37657;53.182;5.638;2023-12-20T11:33:24;8.80;99.90
51567;DHT22;37657;53.182;5.638;2023-12-20T11:35:50;8.90;99.90
51567;DHT22;37657;53.182;5.638;2023-12-20T11:38:16;8.70;99.90
51567;DHT22;37657;53.182;5.638;2023-12-20T11:40:42;8.80;99.90
51567;DHT22;37657;53.182;5.638;2023-12-20T11:43:09;8.70;99.90
51567;DHT22;37657;53.182;5.638;2023-12-20T11:45:35;8.90;99.90
51567;DHT22;37657;53.182;5.638;2023-12-20T11:48:04;8.90;99.90
51567;DHT22;37657;53.182;5.638;2023-12-20T11:50:30;8.90;99.90
51567;DHT22;37657;53.182;5.638;2023-12-20T11:52:56;9.00;99.90
51567;DHT22;37657;53.182;5.638;2023-12-20T11:55:23;9.30;99.90
51567;DHT22;37657;53.182;5.638;2023-12-20T11:57:52;9.20;99.90
51567;DHT22;37657;53.182;5.638;2023-12-20T12:00:18;9.00;99.90
51567;DHT22;37657;53.182;5.638;2023-12-20T12:02:55;9.40;99.90
51567;DHT22;37657;53.182;5.638;2023-12-20T12:05:20;8.70;99.90
51567;DHT22;37657;53.182;5.638;2023-12-20T12:07:46;8.70;99.90
51567;DHT22;37657;53.182;5.638;2023-12-20T12:10:12;9.00;99.90
51567;DHT22;37657;53.182;5.638;2023-12-20T12:12:37;8.70;99.90
51567;DHT22;37657;53.182;5.638;2023-12-20T12:15:04;8.60;99.90
51567;DHT22;37657;53.182;5.638;2023-12-20T12:17:30;8.60;99.90
51567;DHT22;37657;53.182;5.638;2023-12-20T12:20:04;8.50;99.90
51567;DHT22;37657;53.182;5.638;2023-12-20T12:22:30;8.40;99.90
51567;DHT22;37657;53.182;5.638;2023-12-20T12:24:59;8.40;99.90
51567;DHT22;37657;53.182;5.638;2023-12-20T12:27:34;8.30;99.90
51567;DHT22;37657;53.182;5.638;2023-12-20T12:30:01;8.50;99.90
51567;DHT22;37657;53.182;5.638;2023-12-20T12:32:28;8.20;99.90
51567;DHT22;37657;53.182;5.638;2023-12-20T12:34:54;8.10;99.90
51567;DHT22;37657;53.182;5.638;2023-12-20T12:37:19;8.10;99.90
51567;DHT22;37657;53.182;5.638;2023-12-20T12:39:46;7.80;99.90
51567;DHT22;37657;53.182;5.638;2023-12-20T12:42:12;7.80;99.90
51567;DHT22;37657;53.182;5.638;2023-12-20T12:44:37;7.70;99.90
51567;DHT22;37657;53.182;5.638;2023-12-20T12:47:03;7.60;99.90
51567;DHT22;37657;53.182;5.638;2023-12-20T12:49:29;7.60;99.90
51567;DHT22;37657;53.182;5.638;2023-12-20T12:51:54;7.60;99.90
51567;DHT22;37657;53.182;5.638;2023-12-20T12:54:23;7.50;99.90
51567;DHT22;37657;53.182;5.638;2023-12-20T12:56:49;7.80;99.90
51567;DHT22;37657;53.182;5.638;2023-12-20T12:59:16;7.30;99.90
51567;DHT22;37657;53.182;5.638;2023-12-20T13:01:41;7.30;99.90
51567;DHT22;37657;53.182;5.638;2023-12-20T13:04:08;7.30;99.90
51567;DHT22;37657;53.182;5.638;2023-12-20T13:06:37;8.00;99.90
51567;DHT22;37657;53.182;5.638;2023-12-20T13:09:03;7.40;99.90
51567;DHT22;37657;53.182;5.638;2023-12-20T13:11:30;7.20;99.90
51567;DHT22;37657;53.182;5.638;2023-12-20T13:13:57;7.20;99.90
51567;DHT22;37657;53.182;5.638;2023-12-20T13:16:23;7.60;99.90
51567;DHT22;37657;53.182;5.638;2023-12-20T13:18:50;7.40;99.90
51567;DHT22;37657;53.182;5.638;2023-12-20T13:21:15;7.20;99.90
51567;DHT22;37657;53.182;5.638;2023-12-20T13:23:42;7.70;99.90
51567;DHT22;37657;53.182;5.638;2023-12-20T13:26:08;7.50;99.90
51567;DHT22;37657;53.182;5.638;2023-12-20T13:28:34;7.90;99.90
51567;DHT22;37657;53.182;5.638;2023-12-20T13:30:59;7.80;99.90
51567;DHT22;37657;53.182;5.638;2023-12-20T13:33:25;7.70;99.90
51567;DHT22;37657;53.182;5.638;2023-12-20T13:35:51;7.60;99.90
51567;DHT22;37657;53.182;5.638;2023-12-20T13:38:17;7.90;99.90
51567;DHT22;37657;53.182;5.638;2023-12-20T13:40:43;7.70;99.90
51567;DHT22;37657;53.182;5.638;2023-12-20T13:43:09;7.90;99.90
51567;DHT22;37657;53.182;5.638;2023-12-20T13:45:37;8.00;99.90
51567;DHT22;37657;53.182;5.638;2023-12-20T13:48:03;8.20;99.90
51567;DHT22;37657;53.182;5.638;2023-12-20T13:50:28;8.10;99.90
51567;DHT22;37657;53.182;5.638;2023-12-20T13:52:54;8.00;99.90
51567;DHT22;37657;53.182;5.638;2023-12-20T13:55:20;8.00;99.90
51567;DHT22;37657;53.182;5.638;2023-12-20T13:57:47;8.20;99.90
51567;DHT22;37657;53.182;5.638;2023-12-20T14:00:14;8.30;99.90
51567;DHT22;37657;53.182;5.638;2023-12-20T14:02:41;8.00;99.90
51567;DHT22;37657;53.182;5.638;2023-12-20T14:05:08;8.30;99.90
51567;DHT22;37657;53.182;5.638;2023-12-20T14:07:34;8.10;99.90
51567;DHT22;37657;53.182;5.638;2023-12-20T14:10:00;8.30;99.90
51567;DHT22;37657;53.182;5.638;2023-12-20T14:12:26;8.40;99.90
51567;DHT22;37657;53.182;5.638;2023-12-20T14:14:51;8.40;99.90
51567;DHT22;37657;53.182;5.638;2023-12-20T14:17:17;8.80;99.90
51567;DHT22;37657;53.182;5.638;2023-12-20T14:19:43;8.60;99.90
51567;DHT22;37657;53.182;5.638;2023-12-20T14:22:09;8.90;99.90
51567;DHT22;37657;53.182;5.638;2023-12-20T14:24:37;8.50;99.90
51567;DHT22;37657;53.182;5.638;2023-12-20T14:27:03;8.40;99.90
51567;DHT22;37657;53.182;5.638;2023-12-20T14:29:29;8.30;99.90
51567;DHT22;37657;53.182;5.638;2023-12-20T14:31:54;8.30;99.90
51567;DHT22;37657;53.182;5.638;2023-12-20T14:34:20;8.30;99.90
51567;DHT22;37657;53.182;5.638;2023-12-20T14:36:45;8.60;99.90
51567;DHT22;37657;53.182;5.638;2023-12-20T14:39:11;8.70;99.90
51567;DHT22;37657;53.182;5.638;2023-12-20T14:41:38;8.50;99.90
51567;DHT22;37657;53.182;5.638;2023-12-20T14:44:05;8.50;99.90
51567;DHT22;37657;53.182;5.638;2023-12-20T14:46:32;8.70;99.90
51567;DHT22;37657;53.182;5.638;2023-12-20T14:48:57;8.80;99.90
51567;DHT22;37657;53.182;5.638;2023-12-20T14:51:23;8.80;99.90
51567;DHT22;37657;53.182;5.638;2023-12-20T14:53:50;8.90;99.90
51567;DHT22;37657;53.182;5.638;2023-12-20T14:56:15;9.00;99.90
51567;DHT22;37657;53.182;5.638;2023-12-20T14:58:41;9.10;99.90
51567;DHT22;37657;53.182;5.638;2023-12-20T15:01:07;9.20;99.90
51567;DHT22;37657;53.182;5.638;2023-12-20T15:03:34;9.30;99.90
51567;DHT22;37657;53.182;5.638;2023-12-20T15:06:00;9.40;99.90
51567;DHT22;37657;53.182;5.638;2023-12-20T15:08:26;9.30;99.90
51567;DHT22;37657;53.182;5.638;2023-12-20T15:10:52;9.20;99.90
51567;DHT22;37657;53.182;5.638;2023-12-20T15:13:17;9.60;99.90
51567;DHT22;37657;53.182;5.638;2023-12-20T15:15:43;9.70;99.90
51567;DHT22;37657;53.182;5.638;2023-12-20T15:18:09;9.20;99.90
51567;DHT22;37657;53.182;5.638;2023-12-20T15:20:35;9.10;99.90
51567;DHT22;37657;53.182;5.638;2023-12-20T15:23:02;8.90;99.90
51567;DHT22;37657;53.182;5.638;2023-12-20T15:25:32;8.90;99.90
51567;DHT22;37657;53.182;5.638;2023-12-20T15:27:58;8.80;99.90
51567;DHT22;37657;53.182;5.638;2023-12-20T15:30:24;8.90;99.90
51567;DHT22;37657;53.182;5.638;2023-12-20T15:32:50;8.90;99.90
51567;DHT22;37657;53.182;5.638;2023-12-20T15:35:16;9.00;99.90
51567;DHT22;37657;53.182;5.638;2023-12-20T15:37:42;9.10;99.90
51567;DHT22;37657;53.182;5.638;2023-12-20T15:40:09;9.10;99.90
51567;DHT22;37657;53.182;5.638;2023-12-20T15:42:36;9.20;99.90